S/y Merliz — SE2449 — position and weather

sailwx.info

Track history (hours):
 
Tides and Currents Weather Stations Pressure Air Temp Water Temp Dewpoint Dewpoint Depression Visibility Wind Speed Wind Dir Waves Ship Positions

S/y Merliz

Last reported at 2015-Jun-20 12:10 UTC. Time now 2015-Jul-07 06:51 UTC.
Position N 55°38' E 014°43'.
Warning: this ship's position is 16 days out of date.

Length 12 m.

Type: Sailing vessel. MMSI: 265694940.

Date/timePositionNaut miles runAvg speedWind from/ knotsBaromVisibWave heightAir tempDewpointWater temp
2015-Jun-20 12:10N 55°38' E 014°43'  
2015-Jun-13 09:33N 57°14' E 016°44'6 6.4
2015-Jun-13 08:33N 57°18' E 016°53'4 3.8
2015-Jun-13 07:29N 57°20' E 017°00'0 0.0
2015-Jun-13 04:23N 57°20' E 017°00'0 0.0
2015-Jun-13 03:23N 57°20' E 017°00'0 0.0
2015-Jun-13 02:29N 57°20' E 017°00'0 0.0
2015-Jun-13 01:29N 57°20' E 017°00'0 0.0
2015-Jun-13 00:32N 57°20' E 017°00'0 0.0
2015-Jun-12 23:14N 57°20' E 017°00'0 0.0
2015-Jun-12 22:32N 57°20' E 017°00'0 0.0
2015-Jun-12 21:32N 57°20' E 017°00'0 0.0
2015-Jun-12 20:20N 57°20' E 017°00'0 0.0
2015-Jun-12 19:29N 57°20' E 017°00'0 0.0
2015-Jun-12 18:32N 57°20' E 017°00'3 3.2
2015-Jun-12 17:33N 57°23' E 017°00'7 6.9
2015-Jun-12 16:33N 57°30' E 016°60'  
Track history (hours):
 
Tides and Currents Weather Stations Pressure Air Temp Water Temp Dewpoint Dewpoint Depression Visibility Wind Speed Wind Dir Waves Ship Positions

S/y Merliz

Last reported at 2015-Jun-20 12:10 UTC. Time now 2015-Jul-07 06:51 UTC.
Position N 55°38' E 014°43'.
Warning: this ship's position is 16 days out of date.

Length 12 m.

Type: Sailing vessel. MMSI: 265694940.

Date/timePositionNaut miles runAvg speedWind from/ knotsBaromVisibWave heightAir tempDewpointWater temp
2015-Jun-20 12:10N 55°38' E 014°43'  
2015-Jun-13 09:33N 57°14' E 016°44'6 6.4
2015-Jun-13 08:33N 57°18' E 016°53'4 3.8
2015-Jun-13 07:29N 57°20' E 017°00'0 0.0
2015-Jun-13 04:23N 57°20' E 017°00'0 0.0
2015-Jun-13 03:23N 57°20' E 017°00'0 0.0
2015-Jun-13 02:29N 57°20' E 017°00'0 0.0
2015-Jun-13 01:29N 57°20' E 017°00'0 0.0
2015-Jun-13 00:32N 57°20' E 017°00'0 0.0
2015-Jun-12 23:14N 57°20' E 017°00'0 0.0
2015-Jun-12 22:32N 57°20' E 017°00'0 0.0
2015-Jun-12 21:32N 57°20' E 017°00'0 0.0
2015-Jun-12 20:20N 57°20' E 017°00'0 0.0
2015-Jun-12 19:29N 57°20' E 017°00'0 0.0
2015-Jun-12 18:32N 57°20' E 017°00'3 3.2
2015-Jun-12 17:33N 57°23' E 017°00'7 6.9
2015-Jun-12 16:33N 57°30' E 016°60'  

Dump ship's entire track history